Time;durP1;ratioP1;P1;durP2;ratioP2;P2;SDS_P1;SDS_P2;PMS_P1;PMS_P2;Temp;Humidity;BMP_temperature;BMP_pressure;BME280_temperature;BME280_humidity;BME280_pressure;Samples;Min_cycle;Max_cycle;Signal;HPM_P1;HPM_P2
2023/05/13 00:01:20;;;;;;;7.30;4.10;;;;;;;;;;5087266;28;20489;-63
2023/05/13 00:03:47;;;;;;;6.27;3.80;;;;;;;;;;5087652;28;20066;-64
2023/05/13 00:06:14;;;;;;;7.43;4.13;;;;;;;;;;5089658;28;20023;-63
2023/05/13 00:08:41;;;;;;;3.23;2.63;;;;;;;;;;5092738;28;20028;-63
2023/05/13 00:11:08;;;;;;;5.00;3.73;;;;;;;;;;5092500;28;20364;-63
2023/05/13 00:13:34;;;;;;;7.20;3.57;;;;;;;;;;5092601;28;20506;-63
2023/05/13 00:16:02;;;;;;;5.57;3.20;;;;;;;;;;5092598;28;20032;-63
2023/05/13 00:18:29;;;;;;;8.70;3.77;;;;;;;;;;5089807;28;20032;-63
2023/05/13 00:20:55;;;;;;;10.60;4.30;;;;;;;;;;5087653;28;20402;-63
2023/05/13 00:23:22;;;;;;;6.50;4.13;;;;;;;;;;5087412;28;20039;-63
2023/05/13 00:25:49;;;;;;;7.37;3.80;;;;;;;;;;5087542;28;20027;-63
2023/05/13 00:28:16;;;;;;;7.93;4.37;;;;;;;;;;5088055;28;20103;-63
2023/05/13 00:30:44;;;;;;;12.57;3.97;;;;;;;;;;5092467;28;20020;-63
2023/05/13 00:33:11;;;;;;;22.20;4.87;;;;;;;;;;5092377;28;20112;-63
2023/05/13 00:35:38;;;;;;;6.07;4.43;;;;;;;;;;5092112;28;20370;-63
2023/05/13 00:38:04;;;;;;;10.83;4.67;;;;;;;;;;5092503;28;20036;-63
2023/05/13 00:40:32;;;;;;;9.47;4.93;;;;;;;;;;5091141;28;20066;-62
2023/05/13 00:43:01;;;;;;;7.13;5.03;;;;;;;;;;5087440;28;20093;-62
2023/05/13 00:45:28;;;;;;;25.50;4.77;;;;;;;;;;5087086;28;20024;-62
2023/05/13 00:47:54;;;;;;;5.60;4.27;;;;;;;;;;5087259;28;20050;-62
2023/05/13 00:50:21;;;;;;;18.03;4.33;;;;;;;;;;5087638;28;20077;-62
2023/05/13 00:52:49;;;;;;;9.33;5.10;;;;;;;;;;5092177;28;20104;-62
2023/05/13 00:55:17;;;;;;;6.57;4.70;;;;;;;;;;5092484;28;20418;-62
2023/05/13 00:57:43;;;;;;;13.47;5.23;;;;;;;;;;5092215;28;20047;-62
2023/05/13 01:00:11;;;;;;;6.70;4.60;;;;;;;;;;5092320;28;20028;-62
2023/05/13 01:02:56;;;;;;;4.27;3.57;;;;;;;;;;5091355;28;20044;-62
2023/05/13 01:05:22;;;;;;;;;;;;;;;;;;5087605;28;20027;-62
2023/05/13 01:08:04;;;;;;;17.17;5.30;;;;;;;;;;5086699;28;19911;-63
2023/05/13 01:10:48;;;;;;;4.73;3.67;;;;;;;;;;5087082;28;20467;-63
2023/05/13 01:13:18;;;;;;;2.85;2.10;;;;;;;;;;5088753;28;20024;-62
2023/05/13 01:15:51;;;;;;;8.47;1.90;;;;;;;;;;5092200;28;20024;-63
2023/05/13 01:18:25;;;;;;;2.33;1.80;;;;;;;;;;5091827;28;20024;-62
2023/05/13 01:20:51;;;;;;;4.97;2.63;;;;;;;;;;5092203;28;20020;-63
2023/05/13 01:23:18;;;;;;;5.30;2.97;;;;;;;;;;5092205;28;20086;-63
2023/05/13 01:25:45;;;;;;;7.67;3.43;;;;;;;;;;5089744;28;20036;-63
2023/05/13 01:28:12;;;;;;;4.30;3.13;;;;;;;;;;5087048;28;20032;-63
2023/05/13 01:30:39;;;;;;;8.40;4.30;;;;;;;;;;5087017;28;20020;-63
2023/05/13 01:33:06;;;;;;;8.00;4.63;;;;;;;;;;5086617;28;20474;-63
2023/05/13 01:35:33;;;;;;;7.47;5.17;;;;;;;;;;5088216;28;20020;-63
2023/05/13 01:38:02;;;;;;;7.30;4.77;;;;;;;;;;5092376;28;20123;-63
2023/05/13 01:40:29;;;;;;;6.13;4.30;;;;;;;;;;5095663;28;20024;-62
2023/05/13 01:42:56;;;;;;;10.43;5.10;;;;;;;;;;5095738;28;20017;-62
2023/05/13 01:45:23;;;;;;;8.40;5.67;;;;;;;;;;5095488;28;20035;-62
2023/05/13 01:47:49;;;;;;;9.77;4.97;;;;;;;;;;5093715;28;20031;-62
2023/05/13 01:50:16;;;;;;;6.57;4.97;;;;;;;;;;5090327;28;20479;-62
2023/05/13 01:52:43;;;;;;;7.93;5.07;;;;;;;;;;5090258;28;20031;-62
2023/05/13 01:55:10;;;;;;;5.80;4.63;;;;;;;;;;5090233;28;20024;-63
2023/05/13 01:57:36;;;;;;;6.17;5.00;;;;;;;;;;5090922;28;20060;-63
2023/05/13 02:00:04;;;;;;;5.97;4.30;;;;;;;;;;5095321;28;20028;-63
2023/05/13 02:02:31;;;;;;;9.17;5.50;;;;;;;;;;5095187;28;20024;-63
2023/05/13 02:04:57;;;;;;;11.27;5.57;;;;;;;;;;5095035;28;20137;-63
2023/05/13 02:07:24;;;;;;;6.77;5.40;;;;;;;;;;5095264;28;20024;-63
2023/05/13 02:09:57;;;;;;;9.63;6.33;;;;;;;;;;5093781;28;20023;-63
2023/05/13 02:12:24;;;;;;;7.87;6.00;;;;;;;;;;5089869;28;20883;-63
2023/05/13 02:14:51;;;;;;;9.60;5.07;;;;;;;;;;5089881;28;20055;-63
2023/05/13 02:17:17;;;;;;;9.37;5.70;;;;;;;;;;5089857;28;20488;-63
2023/05/13 02:19:44;;;;;;;6.53;5.83;;;;;;;;;;5089757;28;20101;-64
2023/05/13 02:22:11;;;;;;;9.13;6.17;;;;;;;;;;5094705;28;20483;-64
2023/05/13 02:24:39;;;;;;;6.97;4.97;;;;;;;;;;5094819;28;20093;-64
2023/05/13 02:27:06;;;;;;;25.43;5.13;;;;;;;;;;5094466;28;20016;-63
2023/05/13 02:29:33;;;;;;;5.57;4.00;;;;;;;;;;5094817;28;20043;-64
2023/05/13 02:32:00;;;;;;;7.23;4.27;;;;;;;;;;5094304;28;20024;-64
2023/05/13 02:34:27;;;;;;;6.57;5.07;;;;;;;;;;5089509;28;20034;-64
2023/05/13 02:36:54;;;;;;;5.50;4.00;;;;;;;;;;5089241;28;20364;-64
2023/05/13 02:39:20;;;;;;;6.40;4.23;;;;;;;;;;5089299;28;20596;-64
2023/05/13 02:41:47;;;;;;;5.37;4.33;;;;;;;;;;5089296;28;20024;-64
2023/05/13 02:44:14;;;;;;;8.70;4.50;;;;;;;;;;5093672;28;20020;-63
2023/05/13 02:46:42;;;;;;;6.53;5.20;;;;;;;;;;5094519;28;20089;-63
2023/05/13 02:49:10;;;;;;;11.70;4.80;;;;;;;;;;5094309;28;20038;-63
2023/05/13 02:51:36;;;;;;;5.13;4.27;;;;;;;;;;5093664;28;20027;-64
2023/05/13 02:54:03;;;;;;;6.03;4.27;;;;;;;;;;5094161;28;20475;-63
2023/05/13 02:56:30;;;;;;;5.83;4.17;;;;;;;;;;5089025;28;20416;-63
2023/05/13 02:58:57;;;;;;;6.47;4.63;;;;;;;;;;5089233;28;20062;-64
2023/05/13 03:01:25;;;;;;;3.67;3.07;;;;;;;;;;5088749;28;20024;-63
2023/05/13 03:03:52;;;;;;;5.87;4.30;;;;;;;;;;5088965;28;20069;-65
2023/05/13 03:06:19;;;;;;;5.10;4.30;;;;;;;;;;5092971;28;20042;-63
2023/05/13 03:08:45;;;;;;;6.80;4.30;;;;;;;;;;5094033;28;20514;-63
2023/05/13 03:11:12;;;;;;;10.17;4.07;;;;;;;;;;5093755;28;20022;-63
2023/05/13 03:13:39;;;;;;;3.97;3.50;;;;;;;;;;5093720;28;20498;-64
2023/05/13 03:16:06;;;;;;;5.43;4.07;;;;;;;;;;5093858;28;20048;-64
2023/05/13 03:18:32;;;;;;;3.97;3.50;;;;;;;;;;5089389;28;20032;-63
2023/05/13 03:20:59;;;;;;;6.60;4.53;;;;;;;;;;5088590;28;20028;-63
2023/05/13 03:23:26;;;;;;;7.27;4.57;;;;;;;;;;5088513;28;20039;-63
2023/05/13 03:25:53;;;;;;;6.07;4.17;;;;;;;;;;5088642;28;20020;-63
2023/05/13 03:28:20;;;;;;;6.67;4.23;;;;;;;;;;5091675;28;20028;-64
2023/05/13 03:30:46;;;;;;;5.47;3.10;;;;;;;;;;5093682;28;20035;-64
2023/05/13 03:33:13;;;;;;;9.67;4.43;;;;;;;;;;5093650;28;20096;-63
2023/05/13 03:35:40;;;;;;;5.07;3.97;;;;;;;;;;5093351;28;20035;-64
2023/05/13 03:38:07;;;;;;;8.23;5.47;;;;;;;;;;5093193;28;20094;-63
2023/05/13 03:40:34;;;;;;;6.57;3.97;;;;;;;;;;5089770;28;20028;-63
2023/05/13 03:43:01;;;;;;;6.47;3.77;;;;;;;;;;5088329;28;20432;-63
2023/05/13 03:45:27;;;;;;;5.03;3.80;;;;;;;;;;5087967;28;20511;-64
2023/05/13 03:47:55;;;;;;;6.60;4.57;;;;;;;;;;5088246;28;20034;-64
2023/05/13 03:50:21;;;;;;;7.13;4.87;;;;;;;;;;5090895;28;20050;-64
2023/05/13 03:52:48;;;;;;;5.93;4.00;;;;;;;;;;5093190;28;20021;-65
2023/05/13 03:55:15;;;;;;;7.53;4.67;;;;;;;;;;5092625;28;20024;-64
2023/05/13 03:57:47;;;;;;;6.97;5.00;;;;;;;;;;5092957;28;20012;-64
2023/05/13 04:00:14;;;;;;;6.57;4.40;;;;;;;;;;5092950;28;20040;-64
2023/05/13 04:02:40;;;;;;;8.77;4.50;;;;;;;;;;5089056;28;20059;-63
2023/05/13 04:05:08;;;;;;;6.43;4.50;;;;;;;;;;5087826;28;20032;-64
2023/05/13 04:07:35;;;;;;;6.00;4.13;;;;;;;;;;5088003;28;20073;-63
2023/05/13 04:10:01;;;;;;;8.37;3.73;;;;;;;;;;5087703;28;20024;-63
2023/05/13 04:12:29;;;;;;;6.93;4.47;;;;;;;;;;5089984;28;20024;-63
2023/05/13 04:14:56;;;;;;;4.50;3.37;;;;;;;;;;5092700;28;20433;-64
2023/05/13 04:17:23;;;;;;;2.90;2.57;;;;;;;;;;5092802;28;20024;-63
2023/05/13 04:19:53;;;;;;;5.70;4.00;;;;;;;;;;5092428;28;20043;-63
2023/05/13 04:22:20;;;;;;;4.57;3.37;;;;;;;;;;5092513;28;20032;-63
2023/05/13 04:24:50;;;;;;;10.50;4.07;;;;;;;;;;5090073;28;20445;-63
2023/05/13 04:27:17;;;;;;;7.37;4.47;;;;;;;;;;5087236;28;20062;-63
2023/05/13 04:29:52;;;;;;;4.47;3.93;;;;;;;;;;5087538;28;20482;-63
2023/05/13 04:32:22;;;;;;;4.63;3.53;;;;;;;;;;5087609;28;20035;-63
2023/05/13 04:34:49;;;;;;;6.00;3.90;;;;;;;;;;5089822;28;20020;-63
2023/05/13 04:37:16;;;;;;;6.00;4.10;;;;;;;;;;5092302;28;20024;-63
2023/05/13 04:39:45;;;;;;;5.90;4.43;;;;;;;;;;5092353;28;20028;-63
2023/05/13 04:42:12;;;;;;;5.77;4.10;;;;;;;;;;5092119;28;20023;-63
2023/05/13 04:44:39;;;;;;;5.03;4.13;;;;;;;;;;5092431;28;20081;-63
2023/05/13 04:47:06;;;;;;;5.03;3.43;;;;;;;;;;5089789;28;20016;-63
2023/05/13 04:49:33;;;;;;;7.40;5.33;;;;;;;;;;5087471;28;20024;-64
2023/05/13 04:52:01;;;;;;;5.80;4.03;;;;;;;;;;5087350;28;20076;-63
2023/05/13 04:54:28;;;;;;;7.97;4.23;;;;;;;;;;5087326;28;20068;-63
2023/05/13 04:56:55;;;;;;;14.53;4.90;;;;;;;;;;5088842;28;20028;-63
2023/05/13 04:59:21;;;;;;;5.67;4.10;;;;;;;;;;5092135;28;20375;-63
2023/05/13 05:01:48;;;;;;;4.80;3.57;;;;;;;;;;5092372;28;20032;-63
2023/05/13 05:04:15;;;;;;;9.03;4.23;;;;;;;;;;5092311;28;20039;-63
2023/05/13 05:06:42;;;;;;;5.60;3.63;;;;;;;;;;5092332;28;20107;-63
2023/05/13 05:09:08;;;;;;;3.80;2.97;;;;;;;;;;5090243;28;20062;-64
2023/05/13 05:11:35;;;;;;;4.63;3.43;;;;;;;;;;5087116;28;20479;-63
2023/05/13 05:14:02;;;;;;;11.43;4.37;;;;;;;;;;5089339;28;20036;-63
2023/05/13 05:16:29;;;;;;;4.90;3.13;;;;;;;;;;5090765;28;20044;-63
2023/05/13 05:18:55;;;;;;;4.50;3.27;;;;;;;;;;5092197;28;20032;-63
2023/05/13 05:21:22;;;;;;;5.67;3.67;;;;;;;;;;5096069;28;20099;-64
2023/05/13 05:23:49;;;;;;;6.13;4.13;;;;;;;;;;5095997;28;20107;-63
2023/05/13 05:26:16;;;;;;;4.70;3.90;;;;;;;;;;5096038;28;20344;-63
2023/05/13 05:28:43;;;;;;;5.67;3.63;;;;;;;;;;5095770;28;20520;-63
2023/05/13 05:31:10;;;;;;;5.00;4.13;;;;;;;;;;5094499;28;20074;-63
2023/05/13 05:33:37;;;;;;;5.57;4.00;;;;;;;;;;5090307;28;20028;-63
2023/05/13 05:36:04;;;;;;;3.37;3.00;;;;;;;;;;5090728;28;20436;-63
2023/05/13 05:38:31;;;;;;;5.77;4.17;;;;;;;;;;5090494;28;20074;-63
2023/05/13 05:40:57;;;;;;;4.73;3.23;;;;;;;;;;5091021;28;20549;-63
2023/05/13 05:43:24;;;;;;;5.57;3.77;;;;;;;;;;5095627;28;20074;-64
2023/05/13 05:45:51;;;;;;;5.53;3.57;;;;;;;;;;5095390;28;20047;-63
2023/05/13 05:48:18;;;;;;;4.20;3.30;;;;;;;;;;5095345;28;20378;-63
2023/05/13 05:50:44;;;;;;;6.20;4.13;;;;;;;;;;5095279;28;20433;-63
2023/05/13 05:53:11;;;;;;;4.60;3.40;;;;;;;;;;5095074;28;20510;-63
2023/05/13 05:55:38;;;;;;;7.43;3.20;;;;;;;;;;5090260;28;20024;-64
2023/05/13 05:58:06;;;;;;;4.97;3.07;;;;;;;;;;5090124;28;20024;-63
2023/05/13 06:00:33;;;;;;;3.80;2.63;;;;;;;;;;5090207;28;20024;-63
2023/05/13 06:02:59;;;;;;;3.20;2.30;;;;;;;;;;5090084;28;20076;-63
2023/05/13 06:05:26;;;;;;;5.07;2.60;;;;;;;;;;5094995;28;20099;-63
2023/05/13 06:07:53;;;;;;;4.57;3.33;;;;;;;;;;5094823;28;20020;-63
2023/05/13 06:10:19;;;;;;;14.17;2.63;;;;;;;;;;5095256;28;20023;-63
2023/05/13 06:12:46;;;;;;;2.70;2.27;;;;;;;;;;5095048;28;20028;-63
2023/05/13 06:15:13;;;;;;;4.53;3.20;;;;;;;;;;5094842;28;20107;-63
2023/05/13 06:17:40;;;;;;;2.83;1.87;;;;;;;;;;5089777;28;20031;-63
2023/05/13 06:20:07;;;;;;;2.63;1.97;;;;;;;;;;5089796;28;20035;-63
2023/05/13 06:22:34;;;;;;;2.90;1.77;;;;;;;;;;5089873;28;20074;-64
2023/05/13 06:25:00;;;;;;;2.37;1.60;;;;;;;;;;5088390;28;20034;-64
2023/05/13 06:27:30;;;;;;;4.27;1.80;;;;;;;;;;5093995;28;20020;-63
2023/05/13 06:29:57;;;;;;;2.70;1.87;;;;;;;;;;5094612;28;20031;-63
2023/05/13 06:32:23;;;;;;;4.67;1.87;;;;;;;;;;5094667;28;20031;-63
2023/05/13 06:34:51;;;;;;;2.50;1.60;;;;;;;;;;5094477;28;20103;-63
2023/05/13 06:37:18;;;;;;;1.60;1.20;;;;;;;;;;5094404;28;20371;-63
2023/05/13 06:39:45;;;;;;;3.47;1.87;;;;;;;;;;5089850;28;20043;-63
2023/05/13 06:42:12;;;;;;;2.57;1.87;;;;;;;;;;5089340;28;20024;-63
2023/05/13 06:44:39;;;;;;;2.63;1.80;;;;;;;;;;5089348;28;20356;-63
2023/05/13 06:47:06;;;;;;;2.33;1.63;;;;;;;;;;5089267;28;20112;-64
2023/05/13 06:49:33;;;;;;;6.33;1.70;;;;;;;;;;5093063;28;20028;-63
2023/05/13 06:51:59;;;;;;;4.03;1.50;;;;;;;;;;5094243;28;20051;-63
2023/05/13 06:54:26;;;;;;;1.27;1.17;;;;;;;;;;5094156;28;20027;-63
2023/05/13 06:56:53;;;;;;;2.17;1.53;;;;;;;;;;5094042;28;20048;-63
2023/05/13 06:59:21;;;;;;;2.97;1.67;;;;;;;;;;5093579;28;20413;-63
2023/05/13 07:01:49;;;;;;;2.47;1.67;;;;;;;;;;5089928;28;20024;-63
2023/05/13 07:04:15;;;;;;;5.50;2.17;;;;;;;;;;5088981;28;20048;-63
2023/05/13 07:06:42;;;;;;;2.50;1.60;;;;;;;;;;5089027;28;20081;-63
2023/05/13 07:09:09;;;;;;;2.57;1.17;;;;;;;;;;5088945;28;20387;-63
2023/05/13 07:11:36;;;;;;;3.67;1.70;;;;;;;;;;5092088;28;20023;-63
2023/05/13 07:14:03;;;;;;;2.27;1.70;;;;;;;;;;5093813;28;20100;-63
2023/05/13 07:16:29;;;;;;;2.30;1.43;;;;;;;;;;5093476;28;20020;-63
2023/05/13 07:18:56;;;;;;;3.47;2.30;;;;;;;;;;5093896;28;20078;-63
2023/05/13 07:21:23;;;;;;;3.83;2.43;;;;;;;;;;5093702;28;20543;-64
2023/05/13 07:23:49;;;;;;;5.57;2.27;;;;;;;;;;5090312;28;20499;-63
2023/05/13 07:26:16;;;;;;;3.97;2.07;;;;;;;;;;5088500;28;20027;-63
2023/05/13 07:28:43;;;;;;;1.47;1.37;;;;;;;;;;5088340;28;20024;-63
2023/05/13 07:31:10;;;;;;;2.23;2.00;;;;;;;;;;5088434;28;20039;-63
2023/05/13 07:33:36;;;;;;;8.10;2.70;;;;;;;;;;5090598;28;20506;-64
2023/05/13 07:36:04;;;;;;;3.33;1.73;;;;;;;;;;5093481;28;20031;-64
2023/05/13 07:38:31;;;;;;;4.13;2.10;;;;;;;;;;5093279;28;20030;-63
2023/05/13 07:40:58;;;;;;;3.07;2.37;;;;;;;;;;5093548;28;20109;-63
2023/05/13 07:43:26;;;;;;;4.80;2.97;;;;;;;;;;5093333;28;20016;-63
2023/05/13 07:45:53;;;;;;;1.30;1.10;;;;;;;;;;5090371;28;20036;-63
2023/05/13 07:48:20;;;;;;;3.53;1.77;;;;;;;;;;5088142;28;20028;-63
2023/05/13 07:50:47;;;;;;;3.47;1.93;;;;;;;;;;5087886;28;20028;-63
2023/05/13 07:53:13;;;;;;;2.67;2.13;;;;;;;;;;5088132;28;20027;-63
2023/05/13 07:55:40;;;;;;;3.23;2.30;;;;;;;;;;5090098;28;20060;-64
2023/05/13 07:58:07;;;;;;;3.07;2.43;;;;;;;;;;5093118;28;20036;-63
2023/05/13 08:00:34;;;;;;;3.17;2.40;;;;;;;;;;5093039;28;20073;-63
2023/05/13 08:03:01;;;;;;;4.93;2.53;;;;;;;;;;5092823;28;20446;-63
2023/05/13 08:05:27;;;;;;;4.67;2.53;;;;;;;;;;5093015;28;20055;-63
2023/05/13 08:07:54;;;;;;;3.30;2.30;;;;;;;;;;5090165;28;20126;-63
2023/05/13 08:10:21;;;;;;;2.50;1.80;;;;;;;;;;5087800;28;20491;-63
2023/05/13 08:12:52;;;;;;;3.27;2.40;;;;;;;;;;5087799;28;20073;-63
2023/05/13 08:15:19;;;;;;;4.00;2.70;;;;;;;;;;5087687;28;20021;-63
2023/05/13 08:17:46;;;;;;;3.07;1.90;;;;;;;;;;5089250;28;20104;-63
2023/05/13 08:20:14;;;;;;;5.20;2.33;;;;;;;;;;5092637;28;20095;-63
2023/05/13 08:22:42;;;;;;;3.60;2.23;;;;;;;;;;5092632;28;20020;-63
2023/05/13 08:25:11;;;;;;;4.47;2.40;;;;;;;;;;5092697;28;20036;-63
2023/05/13 08:27:38;;;;;;;5.17;2.87;;;;;;;;;;5092804;28;20079;-63
2023/05/13 08:30:06;;;;;;;3.57;2.20;;;;;;;;;;5090465;28;20524;-63
2023/05/13 08:32:32;;;;;;;3.73;2.50;;;;;;;;;;5087603;28;20024;-63
2023/05/13 08:35:00;;;;;;;3.00;2.10;;;;;;;;;;5087452;28;20035;-63
2023/05/13 08:37:27;;;;;;;3.80;1.97;;;;;;;;;;5087161;28;20032;-63
2023/05/13 08:39:55;;;;;;;12.97;2.70;;;;;;;;;;5088457;28;20090;-63
2023/05/13 08:42:22;;;;;;;2.87;2.37;;;;;;;;;;5092403;28;20101;-63
2023/05/13 08:44:52;;;;;;;4.77;1.80;;;;;;;;;;5092479;28;20035;-63
2023/05/13 08:47:41;;;;;;;3.10;2.00;;;;;;;;;;5092412;28;20028;-63
2023/05/13 08:50:08;;;;;;;2.53;2.23;;;;;;;;;;5085933;28;20117;-63
2023/05/13 08:52:35;;;;;;;3.00;2.57;;;;;;;;;;5093929;28;20031;-63
2023/05/13 08:55:02;;;;;;;2.57;2.20;;;;;;;;;;5091641;28;20126;-63
2023/05/13 08:57:31;;;;;;;5.60;3.07;;;;;;;;;;5091378;28;20020;-63
2023/05/13 08:59:57;;;;;;;4.20;2.60;;;;;;;;;;5091307;28;20382;-63
2023/05/13 09:02:24;;;;;;;4.00;2.30;;;;;;;;;;5093283;28;20110;-63
2023/05/13 09:04:54;;;;;;;3.97;2.70;;;;;;;;;;5096333;28;20368;-63
2023/05/13 09:07:21;;;;;;;3.43;2.50;;;;;;;;;;5095870;28;20028;-63
2023/05/13 09:09:47;;;;;;;3.63;2.80;;;;;;;;;;5096163;28;20039;-63
2023/05/13 09:12:34;;;;;;;4.87;2.20;;;;;;;;;;5096227;28;20031;-63
2023/05/13 09:15:01;;;;;;;3.57;2.50;;;;;;;;;;5093200;28;20457;-63
2023/05/13 09:17:30;;;;;;;8.70;2.50;;;;;;;;;;5091165;28;20055;-63
2023/05/13 09:19:56;;;;;;;2.43;1.90;;;;;;;;;;5090548;28;20514;-63
2023/05/13 09:22:23;;;;;;;3.20;2.27;;;;;;;;;;5091144;28;20036;-63
2023/05/13 09:24:56;;;;;;;6.40;3.70;;;;;;;;;;5093120;28;20024;-63
2023/05/13 09:27:36;;;;;;;3.43;2.73;;;;;;;;;;5095884;28;20031;-63
2023/05/13 09:30:03;;;;;;;5.60;3.70;;;;;;;;;;5095867;28;20012;-63
2023/05/13 09:32:30;;;;;;;3.67;2.97;;;;;;;;;;5095594;28;20020;-63
2023/05/13 09:34:56;;;;;;;2.73;2.20;;;;;;;;;;5095693;28;20020;-63
2023/05/13 09:37:23;;;;;;;4.63;2.90;;;;;;;;;;5092717;28;20074;-63
2023/05/13 09:39:52;;;;;;;6.03;3.03;;;;;;;;;;5090871;28;20067;-63
2023/05/13 09:42:19;;;;;;;5.53;2.77;;;;;;;;;;5090522;28;20020;-63
2023/05/13 09:44:46;;;;;;;3.67;2.73;;;;;;;;;;5090593;28;20032;-63
2023/05/13 09:47:13;;;;;;;4.73;3.10;;;;;;;;;;5092826;28;20020;-63
2023/05/13 09:49:40;;;;;;;4.93;3.43;;;;;;;;;;5095517;28;20035;-63
2023/05/13 09:52:10;;;;;;;4.57;3.03;;;;;;;;;;5095668;28;20077;-63
2023/05/13 09:54:40;;;;;;;3.60;2.60;;;;;;;;;;5095361;28;20382;-63
2023/05/13 09:57:07;;;;;;;3.80;2.57;;;;;;;;;;5095498;28;20082;-63
2023/05/13 09:59:34;;;;;;;5.87;3.83;;;;;;;;;;5091269;28;20055;-64
2023/05/13 10:02:04;;;;;;;6.50;3.17;;;;;;;;;;5089995;28;20397;-63
2023/05/13 10:04:31;;;;;;;4.93;3.00;;;;;;;;;;5090142;28;20020;-63
2023/05/13 10:06:58;;;;;;;6.10;2.57;;;;;;;;;;5090184;28;20140;-63
2023/05/13 10:09:28;;;;;;;3.53;2.93;;;;;;;;;;5092146;28;20074;-63
2023/05/13 10:11:55;;;;;;;4.30;2.57;;;;;;;;;;5095104;28;20052;-63
2023/05/13 10:14:22;;;;;;;4.80;3.23;;;;;;;;;;5095120;28;20027;-62
2023/05/13 10:16:50;;;;;;;4.00;3.07;;;;;;;;;;5095075;28;20032;-65
2023/05/13 10:19:17;;;;;;;3.27;2.57;;;;;;;;;;5094446;28;20064;-63
2023/05/13 10:21:44;;;;;;;4.40;2.63;;;;;;;;;;5092474;28;20421;-63
2023/05/13 10:24:11;;;;;;;11.37;3.77;;;;;;;;;;5089865;28;20387;-63
2023/05/13 10:26:38;;;;;;;4.90;3.77;;;;;;;;;;5089655;28;20031;-63
2023/05/13 10:29:05;;;;;;;6.47;3.03;;;;;;;;;;5089763;28;20082;-63
2023/05/13 10:31:32;;;;;;;6.30;3.70;;;;;;;;;;5091288;28;20020;-63
2023/05/13 10:33:59;;;;;;;3.07;2.57;;;;;;;;;;5094678;28;20027;-63
2023/05/13 10:36:49;;;;;;;9.73;4.20;;;;;;;;;;5094282;28;20020;-63
2023/05/13 10:39:18;;;;;;;5.47;3.53;;;;;;;;;;5084161;28;20059;-63
2023/05/13 10:41:52;;;;;;;4.03;3.10;;;;;;;;;;5094379;28;20032;-63
2023/05/13 10:44:22;;;;;;;16.27;4.20;;;;;;;;;;5090875;28;20442;-63
2023/05/13 10:46:49;;;;;;;4.80;2.67;;;;;;;;;;5089445;28;20031;-63
2023/05/13 10:49:16;;;;;;;12.27;3.93;;;;;;;;;;5089332;28;20078;-63
2023/05/13 10:51:48;;;;;;;4.03;2.73;;;;;;;;;;5089279;28;20024;-63
2023/05/13 10:54:19;;;;;;;3.70;2.73;;;;;;;;;;5091736;28;20107;-63
2023/05/13 10:56:46;;;;;;;4.13;2.83;;;;;;;;;;5094137;28;20056;-63
2023/05/13 10:59:13;;;;;;;9.03;3.90;;;;;;;;;;5093686;28;20107;-63
2023/05/13 11:01:43;;;;;;;4.53;3.30;;;;;;;;;;5094249;28;20024;-63
2023/05/13 11:04:14;;;;;;;11.60;2.77;;;;;;;;;;5094050;28;20493;-63
2023/05/13 11:06:42;;;;;;;2.60;2.40;;;;;;;;;;5090662;28;20025;-63
2023/05/13 11:09:20;;;;;;;7.00;3.50;;;;;;;;;;5088964;28;20501;-63
2023/05/13 11:11:48;;;;;;;9.10;3.63;;;;;;;;;;5088061;28;20020;-62
2023/05/13 11:14:16;;;;;;;4.30;3.23;;;;;;;;;;5088865;28;20017;-63
2023/05/13 11:17:17;;;;;;;4.47;3.40;;;;;;;;;;5091773;28;20073;-63
2023/05/13 11:19:47;;;;;;;4.30;2.80;;;;;;;;;;5049771;28;20437;-63
2023/05/13 11:22:22;;;;;;;3.57;2.60;;;;;;;;;;5093829;28;20032;-63
2023/05/13 11:25:08;;;;;;;5.82;4.18;;;;;;;;;;5093813;28;20030;-63
2023/05/13 11:27:39;;;;;;;4.67;3.33;;;;;;;;;;5093006;28;20081;-64
2023/05/13 11:30:07;;;;;;;3.63;2.80;;;;;;;;;;5088541;28;20028;-62
2023/05/13 11:32:55;;;;;;;4.53;3.13;;;;;;;;;;5088711;28;20375;-62
2023/05/13 11:35:25;;;;;;;2.50;2.27;;;;;;;;;;5088416;28;20024;-62
2023/05/13 11:37:52;;;;;;;4.87;3.27;;;;;;;;;;5088806;28;20040;-63
2023/05/13 11:40:25;;;;;;;2.23;1.80;;;;;;;;;;5093283;28;20375;-63
2023/05/13 11:42:52;;;;;;;6.67;3.20;;;;;;;;;;5093519;28;20103;-63
2023/05/13 11:45:20;;;;;;;2.53;2.03;;;;;;;;;;5093195;28;20034;-63
2023/05/13 11:47:47;;;;;;;4.27;2.93;;;;;;;;;;5093224;28;20020;-62
2023/05/13 11:50:18;;;;;;;4.47;2.87;;;;;;;;;;5091918;28;20031;-63
2023/05/13 11:52:45;;;;;;;5.63;2.70;;;;;;;;;;5087465;28;20024;-63
2023/05/13 11:55:12;;;;;;;15.30;4.00;;;;;;;;;;5088016;28;20035;-63
2023/05/13 11:57:40;;;;;;;6.47;3.27;;;;;;;;;;5087882;28;20050;-63
2023/05/13 12:00:09;;;;;;;6.33;2.80;;;;;;;;;;5088605;28;20028;-63
2023/05/13 12:02:38;;;;;;;9.10;2.70;;;;;;;;;;5092691;28;20494;-63
2023/05/13 12:05:06;;;;;;;4.10;3.20;;;;;;;;;;5092813;28;20059;-63
2023/05/13 12:07:33;;;;;;;4.23;3.70;;;;;;;;;;5092791;28;20471;-62
2023/05/13 12:10:01;;;;;;;5.27;3.67;;;;;;;;;;5092781;28;20099;-63
2023/05/13 12:12:33;;;;;;;7.07;3.97;;;;;;;;;;5091695;28;20110;-62
2023/05/13 12:15:01;;;;;;;4.67;2.63;;;;;;;;;;5087754;28;20031;-63
2023/05/13 12:17:28;;;;;;;5.10;3.37;;;;;;;;;;5087560;28;20024;-63
2023/05/13 12:20:05;;;;;;;3.37;2.63;;;;;;;;;;5087408;28;20352;-62
2023/05/13 12:22:33;;;;;;;4.83;3.43;;;;;;;;;;5087856;28;20016;-63
2023/05/13 12:25:02;;;;;;;3.67;2.80;;;;;;;;;;5092486;28;20132;-63
2023/05/13 12:27:29;;;;;;;7.80;4.97;;;;;;;;;;5092635;28;20378;-63
2023/05/13 12:29:56;;;;;;;4.70;3.43;;;;;;;;;;5092557;28;20024;-63
2023/05/13 12:32:24;;;;;;;3.67;3.10;;;;;;;;;;5092504;28;20154;-63
2023/05/13 12:34:51;;;;;;;10.13;4.57;;;;;;;;;;5091229;28;20544;-62
2023/05/13 12:37:18;;;;;;;5.43;3.60;;;;;;;;;;5086798;28;20052;-63
2023/05/13 12:39:45;;;;;;;3.37;2.63;;;;;;;;;;5087242;28;20426;-62
2023/05/13 12:42:15;;;;;;;6.47;3.47;;;;;;;;;;5087371;28;20028;-63
2023/05/13 12:44:45;;;;;;;6.57;4.67;;;;;;;;;;5087889;28;20482;-63
2023/05/13 12:47:18;;;;;;;4.87;4.13;;;;;;;;;;5092495;28;20416;-63
2023/05/13 12:49:57;;;;;;;4.10;3.13;;;;;;;;;;5092424;28;20020;-62
2023/05/13 12:52:24;;;;;;;5.33;4.63;;;;;;;;;;5092065;28;20028;-63
2023/05/13 12:54:51;;;;;;;9.90;5.23;;;;;;;;;;5092294;28;20059;-62
2023/05/13 12:57:19;;;;;;;7.77;5.63;;;;;;;;;;5090578;28;20024;-63
2023/05/13 12:59:46;;;;;;;6.53;5.33;;;;;;;;;;5087018;28;20040;-62
2023/05/13 13:02:13;;;;;;;7.33;5.40;;;;;;;;;;5087105;28;20021;-63
2023/05/13 13:04:40;;;;;;;6.93;5.13;;;;;;;;;;5086854;28;20563;-63
2023/05/13 13:07:11;;;;;;;7.53;5.03;;;;;;;;;;5088086;28;20020;-63
2023/05/13 13:09:38;;;;;;;6.63;5.17;;;;;;;;;;5092201;28;20572;-62
2023/05/13 13:12:04;;;;;;;5.77;4.37;;;;;;;;;;5092189;28;20547;-63
2023/05/13 13:14:31;;;;;;;10.00;5.33;;;;;;;;;;5091996;28;20074;-63
2023/05/13 13:16:58;;;;;;;6.27;5.07;;;;;;;;;;5092043;28;20024;-63
2023/05/13 13:19:25;;;;;;;6.60;5.10;;;;;;;;;;5090239;28;20114;-63
2023/05/13 13:21:51;;;;;;;7.10;5.07;;;;;;;;;;5086967;28;20025;-63
2023/05/13 13:24:18;;;;;;;9.53;5.93;;;;;;;;;;5087022;28;20032;-63
2023/05/13 13:26:45;;;;;;;7.47;5.20;;;;;;;;;;5087012;28;20436;-63
2023/05/13 13:29:12;;;;;;;4.93;3.57;;;;;;;;;;5087622;28;20036;-63
2023/05/13 13:31:38;;;;;;;5.30;3.77;;;;;;;;;;5091896;28;20483;-63
2023/05/13 13:34:05;;;;;;;5.97;3.47;;;;;;;;;;5092738;28;20020;-63
2023/05/13 13:36:32;;;;;;;3.60;3.13;;;;;;;;;;5095514;28;20020;-63
2023/05/13 13:38:59;;;;;;;8.27;4.67;;;;;;;;;;5095565;28;20032;-63
2023/05/13 13:41:26;;;;;;;4.27;3.53;;;;;;;;;;5094588;28;20024;-63
2023/05/13 13:43:53;;;;;;;6.17;2.97;;;;;;;;;;5090423;28;20028;-63
2023/05/13 13:46:19;;;;;;;4.53;3.43;;;;;;;;;;5090472;28;20035;-63
2023/05/13 13:48:46;;;;;;;5.20;3.70;;;;;;;;;;5090272;28;20024;-63
2023/05/13 13:51:13;;;;;;;7.47;3.57;;;;;;;;;;5090598;28;20048;-63
2023/05/13 13:53:40;;;;;;;7.53;4.80;;;;;;;;;;5094967;28;20234;-64
2023/05/13 13:56:07;;;;;;;7.50;4.53;;;;;;;;;;5095454;28;20474;-63
2023/05/13 13:58:34;;;;;;;6.47;4.40;;;;;;;;;;5095242;28;20421;-63
2023/05/13 14:01:00;;;;;;;5.27;3.27;;;;;;;;;;5095345;28;20379;-64
2023/05/13 14:03:27;;;;;;;11.37;3.37;;;;;;;;;;5094800;28;20514;-64
2023/05/13 14:05:54;;;;;;;6.70;4.20;;;;;;;;;;5090072;28;20023;-63
2023/05/13 14:08:21;;;;;;;5.97;3.80;;;;;;;;;;5090093;28;20016;-63
2023/05/13 14:10:48;;;;;;;10.70;3.93;;;;;;;;;;5089581;28;20054;-63
2023/05/13 14:13:15;;;;;;;3.63;2.63;;;;;;;;;;5089980;28;20028;-63
2023/05/13 14:15:42;;;;;;;5.50;3.00;;;;;;;;;;5094865;28;20048;-63
2023/05/13 14:18:09;;;;;;;4.77;2.43;;;;;;;;;;5094746;28;20028;-64
2023/05/13 14:20:37;;;;;;;3.13;2.20;;;;;;;;;;5094890;28;20424;-63
2023/05/13 14:23:03;;;;;;;4.37;2.47;;;;;;;;;;5094736;28;20024;-64
2023/05/13 14:25:30;;;;;;;4.43;2.80;;;;;;;;;;5094678;28;20031;-63
2023/05/13 14:27:57;;;;;;;6.27;2.77;;;;;;;;;;5089313;28;20032;-63
2023/05/13 14:30:26;;;;;;;4.43;2.80;;;;;;;;;;5089647;28;20036;-64
2023/05/13 14:32:53;;;;;;;2.83;2.07;;;;;;;;;;5089617;28;20053;-63
2023/05/13 14:35:19;;;;;;;6.03;2.97;;;;;;;;;;5089255;28;20020;-64
2023/05/13 14:37:46;;;;;;;4.97;3.17;;;;;;;;;;5094024;28;20035;-63
2023/05/13 14:40:13;;;;;;;12.83;3.00;;;;;;;;;;5094381;28;20036;-63
2023/05/13 14:42:40;;;;;;;5.20;3.00;;;;;;;;;;5093998;28;20081;-65
2023/05/13 14:45:10;;;;;;;4.93;2.40;;;;;;;;;;5094407;28;20028;-64
2023/05/13 14:47:37;;;;;;;4.63;2.90;;;;;;;;;;5093699;28;20032;-64